createdAt,value
2023-04-24T00:00:48.096Z,61.42
2023-04-24T00:04:48.039Z,61.28
2023-04-24T00:08:46.045Z,61.63
2023-04-24T00:12:43.990Z,61.81
2023-04-24T00:16:42.010Z,62.28
2023-04-24T00:20:40.004Z,62.74
2023-04-24T00:24:37.988Z,62.72
2023-04-24T00:28:35.947Z,62.13
2023-04-24T00:32:33.993Z,62.09
2023-04-24T00:36:31.970Z,62.19
2023-04-24T00:40:29.972Z,62.50
2023-04-24T00:44:27.939Z,62.48
2023-04-24T00:48:26.961Z,62.23
2023-04-24T00:52:24.967Z,62.42
2023-04-24T00:56:23.004Z,62.45
2023-04-24T01:00:21.923Z,62.55
2023-04-24T01:04:20.187Z,63.06
2023-04-24T01:08:19.909Z,63.02
2023-04-24T01:12:20.104Z,63.56
2023-04-24T01:16:17.984Z,63.41
2023-04-24T01:20:15.903Z,63.55
2023-04-24T01:24:13.897Z,63.47
2023-04-24T01:28:11.894Z,63.19
2023-04-24T01:32:10.902Z,63.43
2023-04-24T01:36:09.885Z,63.85
2023-04-24T01:40:07.871Z,64.00
2023-04-24T01:44:05.934Z,63.83
2023-04-24T01:48:04.904Z,64.36
2023-04-24T01:52:03.117Z,64.13
2023-04-24T01:56:00.872Z,64.46
2023-04-24T01:59:58.972Z,64.50
2023-04-24T02:04:03.922Z,64.71
2023-04-24T02:08:01.989Z,64.80
2023-04-24T02:12:02.902Z,64.98
2023-04-24T02:16:00.982Z,65.00
2023-04-24T02:19:58.821Z,65.08
2023-04-24T02:23:56.953Z,65.48
2023-04-24T02:27:54.833Z,65.40
2023-04-24T02:31:52.949Z,64.75
2023-04-24T02:35:50.837Z,65.03
2023-04-24T02:39:48.823Z,65.32
2023-04-24T02:43:46.780Z,65.62
2023-04-24T02:47:44.903Z,64.97
2023-04-24T02:51:42.779Z,65.01
2023-04-24T02:55:40.807Z,64.68
2023-04-24T02:59:39.905Z,64.30
2023-04-24T03:03:37.958Z,65.08
2023-04-24T03:07:35.785Z,64.70
2023-04-24T03:11:33.860Z,64.21
2023-04-24T03:15:32.814Z,64.10
2023-04-24T03:19:30.865Z,63.93
2023-04-24T03:23:32.726Z,63.96
2023-04-24T03:27:30.790Z,64.22
2023-04-24T03:31:32.778Z,63.83
2023-04-24T03:35:30.824Z,63.93
2023-04-24T03:39:32.774Z,63.66
2023-04-24T03:43:30.856Z,63.49
2023-04-24T03:47:29.896Z,62.87
2023-04-24T03:51:30.768Z,61.36
2023-04-24T03:55:40.732Z,59.52
2023-04-24T03:59:38.841Z,58.63
2023-04-24T04:03:40.896Z,58.49
2023-04-24T04:07:39.760Z,58.49
2023-04-24T04:11:37.695Z,58.69
2023-04-24T04:15:36.896Z,58.69
2023-04-24T04:19:34.789Z,58.41
2023-04-24T04:23:32.755Z,57.90
2023-04-24T04:27:39.677Z,57.83
2023-04-24T04:31:37.793Z,57.70
2023-04-24T04:35:36.669Z,57.29
2023-04-24T04:39:35.738Z,56.03
2023-04-24T04:43:38.725Z,55.02
2023-04-24T04:47:39.711Z,51.12
2023-04-24T04:51:37.659Z,46.56
2023-04-24T04:55:36.686Z,43.41
2023-04-24T04:59:39.698Z,43.51
2023-04-24T05:03:41.758Z,44.26
2023-04-24T05:07:40.641Z,44.58
2023-04-24T05:11:39.686Z,45.20
2023-04-24T05:15:37.628Z,46.51
2023-04-24T05:19:35.752Z,46.76
2023-04-24T05:23:33.681Z,47.28
2023-04-24T05:27:31.666Z,47.61
2023-04-24T05:31:32.748Z,48.03
2023-04-24T05:35:30.698Z,48.50
2023-04-24T05:39:28.675Z,48.53
2023-04-24T05:43:26.648Z,48.60
2023-04-24T05:47:24.639Z,48.70
2023-04-24T05:51:22.702Z,48.42
2023-04-24T05:55:20.686Z,48.51
2023-04-24T05:59:18.659Z,48.40
2023-04-24T06:02:56.716Z,48.21
2023-04-24T06:06:21.393Z,48.45
2023-04-24T06:09:45.624Z,48.58
2023-04-24T06:13:09.696Z,48.57
2023-04-24T06:16:36.112Z,47.83
2023-04-24T06:20:07.269Z,47.47
2023-04-24T06:23:33.676Z,47.09
2023-04-24T06:26:58.354Z,46.66
2023-04-24T06:30:22.118Z,46.98
2023-04-24T06:33:46.049Z,47.11
2023-04-24T06:37:09.896Z,47.19
2023-04-24T06:40:34.588Z,46.33
2023-04-24T06:43:58.716Z,46.00
2023-04-24T06:47:22.707Z,45.95
2023-04-24T06:50:48.112Z,45.95
2023-04-24T06:54:12.272Z,45.50
2023-04-24T06:57:36.143Z,45.22
2023-04-24T07:01:00.003Z,45.12
2023-04-24T07:04:26.347Z,45.49
2023-04-24T07:07:52.373Z,45.44
2023-04-24T07:11:16.784Z,46.06
2023-04-24T07:14:41.995Z,45.56
2023-04-24T07:18:06.090Z,45.19
2023-04-24T07:21:30.102Z,44.83
2023-04-24T07:24:53.938Z,45.05
2023-04-24T07:28:19.075Z,45.11
2023-04-24T07:31:43.176Z,45.14
2023-04-24T07:35:07.846Z,44.32
2023-04-24T07:38:32.607Z,44.78
2023-04-24T07:41:56.542Z,44.28
2023-04-24T07:45:20.477Z,43.36
2023-04-24T07:48:44.479Z,43.44
2023-04-24T07:52:08.768Z,43.69
2023-04-24T07:55:32.862Z,43.50
2023-04-24T07:58:56.724Z,43.11
2023-04-24T08:02:22.908Z,42.49
2023-04-24T08:05:47.232Z,42.94
2023-04-24T08:09:11.341Z,42.62
2023-04-24T08:12:35.522Z,42.59
2023-04-24T08:15:59.416Z,42.64
2023-04-24T08:19:23.605Z,42.79
2023-04-24T08:22:48.357Z,42.54
2023-04-24T08:26:12.808Z,42.58
2023-04-24T08:29:36.644Z,41.63
2023-04-24T08:33:00.579Z,41.45
2023-04-24T08:36:30.435Z,41.45
2023-04-24T08:40:00.275Z,41.99
2023-04-24T08:43:25.385Z,42.25
2023-04-24T08:46:52.427Z,42.27
2023-04-24T08:50:17.269Z,41.69
2023-04-24T08:53:42.360Z,41.23
2023-04-24T08:57:12.618Z,41.62
2023-04-24T09:00:36.590Z,41.29
2023-04-24T09:04:05.996Z,41.90
2023-04-24T09:07:32.438Z,42.09
2023-04-24T09:10:58.523Z,40.93
2023-04-24T09:14:24.719Z,40.18
2023-04-24T09:17:49.303Z,39.72
2023-04-24T09:21:13.869Z,39.96
2023-04-24T09:24:37.744Z,39.91
2023-04-24T09:28:07.934Z,39.15
2023-04-24T09:31:32.249Z,38.85
2023-04-24T09:35:14.067Z,38.41
2023-04-24T09:38:39.603Z,38.42
2023-04-24T09:42:03.467Z,38.89
2023-04-24T09:45:37.631Z,38.97
2023-04-24T09:49:22.410Z,39.14
2023-04-24T09:52:49.145Z,37.50
2023-04-24T09:56:14.215Z,36.84
2023-04-24T09:59:45.155Z,36.97
2023-04-24T10:03:09.457Z,36.79
2023-04-24T10:06:37.204Z,36.81
2023-04-24T10:10:01.589Z,36.88
2023-04-24T10:13:25.889Z,36.52
2023-04-24T10:16:50.657Z,36.24
2023-04-24T10:20:14.888Z,35.13
2023-04-24T10:23:39.745Z,34.28
2023-04-24T10:27:05.002Z,34.52
2023-04-24T10:30:36.348Z,35.16
2023-04-24T10:34:02.063Z,34.34
2023-04-24T10:37:27.975Z,34.23
2023-04-24T10:40:51.945Z,33.72
2023-04-24T10:44:17.360Z,33.20
2023-04-24T10:47:45.473Z,33.46
2023-04-24T10:51:14.122Z,33.08
2023-04-24T10:54:44.286Z,33.58
2023-04-24T10:58:08.171Z,34.41
2023-04-24T11:01:34.369Z,34.37
2023-04-24T11:04:58.397Z,35.03
2023-04-24T11:08:31.510Z,34.26
2023-04-24T11:12:15.474Z,34.31
2023-04-24T11:15:39.261Z,34.15
2023-04-24T11:19:05.034Z,32.60
2023-04-24T11:22:34.350Z,32.23
2023-04-24T11:26:15.422Z,31.31
2023-04-24T11:29:43.923Z,30.76
2023-04-24T11:33:08.363Z,30.53
2023-04-24T11:36:33.778Z,30.24
2023-04-24T11:40:00.796Z,29.35
2023-04-24T11:43:25.978Z,29.16
2023-04-24T11:46:49.854Z,29.95
2023-04-24T11:50:16.241Z,29.54
2023-04-24T11:53:42.206Z,29.64
2023-04-24T11:57:08.756Z,29.31
2023-04-24T12:00:35.308Z,29.81
2023-04-24T12:04:02.598Z,30.06
2023-04-24T12:07:26.687Z,29.99
2023-04-24T12:10:53.366Z,30.01
2023-04-24T12:14:17.247Z,28.68
2023-04-24T12:17:44.147Z,27.78
2023-04-24T12:21:23.115Z,28.37
2023-04-24T12:25:07.056Z,28.00
2023-04-24T12:28:39.857Z,27.82
2023-04-24T12:32:03.922Z,26.65
2023-04-24T12:35:30.892Z,27.45
2023-04-24T12:38:55.504Z,27.93
2023-04-24T12:42:31.810Z,27.75
2023-04-24T12:45:55.795Z,26.43
2023-04-24T12:49:19.765Z,26.60
2023-04-24T12:52:45.384Z,26.08
2023-04-24T12:56:09.265Z,25.83
2023-04-24T12:59:33.273Z,25.25
2023-04-24T13:02:57.377Z,25.68
2023-04-24T13:06:22.396Z,25.05
2023-04-24T13:09:46.432Z,25.80
2023-04-24T13:13:10.954Z,26.64
2023-04-24T13:16:34.970Z,26.40
2023-04-24T13:19:58.828Z,25.98
2023-04-24T13:23:24.227Z,24.62
2023-04-24T13:26:48.277Z,24.14
2023-04-24T13:30:12.711Z,24.53
2023-04-24T13:33:57.233Z,25.21
2023-04-24T13:37:56.125Z,25.43
2023-04-24T13:41:55.271Z,25.16
2023-04-24T13:45:53.272Z,25.95
2023-04-24T13:49:51.195Z,27.59
2023-04-24T13:53:49.125Z,27.24
2023-04-24T13:57:47.259Z,27.00
2023-04-24T14:01:45.158Z,26.83
2023-04-24T14:05:43.159Z,26.93
2023-04-24T14:09:41.116Z,27.00
2023-04-24T14:13:39.145Z,27.26
2023-04-24T14:17:37.181Z,27.44
2023-04-24T14:21:35.108Z,27.96
2023-04-24T14:25:33.106Z,27.92
2023-04-24T14:29:35.288Z,28.17
2023-04-24T14:33:33.176Z,28.61
2023-04-24T14:37:31.151Z,28.56
2023-04-24T14:41:29.098Z,28.56
2023-04-24T14:45:27.210Z,28.53
2023-04-24T14:49:26.111Z,28.64
2023-04-24T14:53:24.147Z,28.79
2023-04-24T14:57:16.476Z,29.05
2023-04-24T15:01:14.188Z,29.19
2023-04-24T15:05:12.473Z,29.46
2023-04-24T15:09:10.074Z,29.30
2023-04-24T15:13:08.159Z,29.15
2023-04-24T15:17:06.308Z,28.80
2023-04-24T15:21:04.034Z,28.62
2023-04-24T15:25:02.181Z,28.19
2023-04-24T15:29:00.058Z,28.28
2023-04-24T15:32:58.265Z,28.52
2023-04-24T15:37:03.091Z,28.47
2023-04-24T15:41:01.137Z,28.07
2023-04-24T15:44:59.044Z,27.36
2023-04-24T15:49:00.185Z,27.19
2023-04-24T15:52:58.044Z,26.94
2023-04-24T15:56:56.147Z,26.96
2023-04-24T16:00:53.984Z,26.91
2023-04-24T16:04:52.215Z,26.46
2023-04-24T16:08:51.103Z,26.90
2023-04-24T16:12:49.065Z,28.02
2023-04-24T16:16:46.984Z,29.23
2023-04-24T16:20:45.079Z,29.73
2023-04-24T16:24:42.987Z,29.88
2023-04-24T16:28:41.101Z,30.07
2023-04-24T16:32:38.999Z,30.37
2023-04-24T16:36:38.187Z,30.85
2023-04-24T16:40:35.963Z,31.34
2023-04-24T16:44:33.990Z,31.65
2023-04-24T16:48:32.013Z,32.05
2023-04-24T16:52:31.036Z,32.36
2023-04-24T16:56:29.008Z,32.88
2023-04-24T17:00:28.008Z,32.80
2023-04-24T17:04:26.304Z,33.60
2023-04-24T17:08:25.000Z,33.95
2023-04-24T17:12:24.201Z,34.53
2023-04-24T17:16:22.017Z,34.28
2023-04-24T17:20:23.334Z,34.41
2023-04-24T17:24:22.498Z,34.92
2023-04-24T17:28:35.931Z,35.64
2023-04-24T17:32:33.956Z,35.26
2023-04-24T17:36:31.953Z,35.41
2023-04-24T17:40:30.016Z,36.17
2023-04-24T17:44:27.901Z,36.83
2023-04-24T17:48:27.002Z,36.86
2023-04-24T17:52:24.982Z,37.71
2023-04-24T17:56:22.972Z,37.12
2023-04-24T18:00:21.934Z,37.24
2023-04-24T18:04:20.261Z,37.64
2023-04-24T18:08:20.102Z,38.14
2023-04-24T18:12:18.044Z,38.41
2023-04-24T18:16:15.918Z,38.51
2023-04-24T18:20:14.003Z,38.72
2023-04-24T18:24:11.984Z,38.81
2023-04-24T18:28:09.953Z,39.25
2023-04-24T18:32:07.939Z,39.76
2023-04-24T18:36:05.939Z,39.67
2023-04-24T18:39:57.143Z,39.83
2023-04-24T18:43:54.912Z,40.51
2023-04-24T18:47:52.930Z,41.38
2023-04-24T18:51:54.345Z,41.49
2023-04-24T18:55:52.845Z,41.72
2023-04-24T18:59:50.903Z,41.97
2023-04-24T19:03:50.120Z,41.85
2023-04-24T19:07:48.926Z,41.66
2023-04-24T19:11:47.879Z,41.82
2023-04-24T19:15:46.813Z,42.21
2023-04-24T19:19:45.810Z,42.28
2023-04-24T19:23:45.959Z,42.31
2023-04-24T19:27:43.840Z,42.35
2023-04-24T19:31:44.968Z,42.54
2023-04-24T19:35:48.900Z,42.66
2023-04-24T19:39:46.836Z,42.76
2023-04-24T19:43:44.783Z,42.68
2023-04-24T19:47:42.948Z,43.07
2023-04-24T19:51:40.789Z,43.65
2023-04-24T19:55:38.807Z,44.61
2023-04-24T19:59:36.789Z,44.90
2023-04-24T20:03:35.205Z,44.91
2023-04-24T20:07:32.841Z,44.75
2023-04-24T20:11:30.822Z,44.76
2023-04-24T20:15:28.809Z,44.81
2023-04-24T20:19:26.832Z,45.34
2023-04-24T20:23:24.767Z,47.73
2023-04-24T20:27:22.865Z,49.11
2023-04-24T20:31:20.805Z,49.62
2023-04-24T20:35:18.755Z,48.87
2023-04-24T20:39:16.731Z,48.20
2023-04-24T20:43:14.862Z,49.32
2023-04-24T20:47:12.663Z,49.15
2023-04-24T20:51:10.716Z,49.51
2023-04-24T20:55:08.854Z,49.87
2023-04-24T20:59:06.777Z,49.62
2023-04-24T21:03:04.842Z,51.44
2023-04-24T21:07:02.744Z,51.33
2023-04-24T21:11:00.712Z,52.24
2023-04-24T21:14:58.748Z,51.71
2023-04-24T21:18:56.721Z,52.06
2023-04-24T21:22:54.702Z,53.34
2023-04-24T21:26:53.755Z,53.19
2023-04-24T21:30:51.733Z,53.46
2023-04-24T21:34:49.742Z,53.85
2023-04-24T21:38:47.687Z,54.69
2023-04-24T21:42:45.667Z,55.03
2023-04-24T21:46:43.924Z,56.72
2023-04-24T21:50:41.760Z,57.67
2023-04-24T21:54:39.703Z,56.52
2023-04-24T21:58:37.703Z,56.43
2023-04-24T22:02:35.898Z,56.56
2023-04-24T22:06:33.752Z,58.16
2023-04-24T22:10:32.645Z,57.39
2023-04-24T22:14:31.752Z,57.54
2023-04-24T22:18:40.055Z,57.69
2023-04-24T22:22:44.621Z,57.68
2023-04-24T22:26:42.694Z,58.00
2023-04-24T22:30:40.677Z,57.84
2023-04-24T22:34:38.757Z,57.97
2023-04-24T22:38:36.602Z,58.60
2023-04-24T22:42:34.602Z,58.96
2023-04-24T22:46:32.550Z,60.70
2023-04-24T22:50:30.655Z,61.31
2023-04-24T22:54:29.934Z,64.01
2023-04-24T22:58:27.641Z,64.80
2023-04-24T23:02:25.706Z,65.84
2023-04-24T23:06:24.550Z,66.76
2023-04-24T23:10:22.556Z,67.61
2023-04-24T23:14:20.584Z,67.29
2023-04-24T23:18:18.651Z,67.10
2023-04-24T23:22:16.547Z,65.97
2023-04-24T23:26:14.570Z,65.67
2023-04-24T23:30:13.525Z,65.44
2023-04-24T23:34:11.601Z,65.99
2023-04-24T23:38:09.589Z,65.41
2023-04-24T23:42:09.510Z,65.49
2023-04-24T23:46:07.576Z,64.71
2023-04-24T23:50:05.492Z,64.65
2023-04-24T23:54:03.545Z,64.94
2023-04-24T23:58:01.534Z,65.52
